Time;durP1;ratioP1;P1;durP2;ratioP2;P2;SDS_P1;SDS_P2;PMS_P1;PMS_P2;Temp;Humidity;BMP_temperature;BMP_pressure;BME280_temperature;BME280_humidity;BME280_pressure;Samples;Min_cycle;Max_cycle;Signal;HPM_P1;HPM_P2
2021/04/29 00:00:17;;;;;;;1.23;0.80;;;;;;;10.32;100.00;97248.53;4949434;28;20031;-85
2021/04/29 00:02:43;;;;;;;1.35;0.80;;;;;;;10.30;100.00;97236.25;4961867;28;20018;-85
2021/04/29 00:05:12;;;;;;;0.57;0.57;;;;;;;10.24;100.00;97244.66;4945308;28;20027;-85
2021/04/29 00:10:24;;;;;;;1.45;0.73;;;;;;;10.21;100.00;97240.34;4956844;28;20061;-85
2021/04/29 00:12:50;;;;;;;1.55;1.27;;;;;;;10.19;100.00;97233.38;4946696;28;20019;-85
2021/04/29 00:15:16;;;;;;;0.60;0.60;;;;;;;10.29;100.00;97238.03;4961478;28;20030;-85
2021/04/29 00:17:43;;;;;;;1.00;0.52;;;;;;;10.28;100.00;97244.34;4961137;28;20027;-85
2021/04/29 00:20:13;;;;;;;1.13;1.05;;;;;;;10.18;100.00;97242.38;4946366;28;20105;-85
2021/04/29 00:22:38;;;;;;;2.47;1.27;;;;;;;10.26;100.00;97242.72;4963011;28;20023;-85
2021/04/29 00:25:06;;;;;;;0.93;0.85;;;;;;;10.31;100.00;97249.47;4947645;28;20023;-85
2021/04/29 00:27:31;;;;;;;4.82;0.95;;;;;;;10.30;100.00;97246.94;4947657;28;20046;-86
2021/04/29 00:29:57;;;;;;;1.02;0.45;;;;;;;10.26;100.00;97254.28;4964103;28;20027;-85
2021/04/29 00:32:22;;;;;;;1.30;0.98;;;;;;;10.20;100.00;97249.34;4946616;28;20097;-86
2021/04/29 00:34:48;;;;;;;0.50;0.50;;;;;;;10.19;100.00;97258.31;4946520;28;20035;-85
2021/04/29 00:37:14;;;;;;;2.15;1.05;;;;;;;10.17;100.00;97254.88;4963195;28;20038;-85
2021/04/29 00:39:39;;;;;;;1.55;0.70;;;;;;;10.18;100.00;97255.75;4950251;28;20035;-85
2021/04/29 00:42:05;;;;;;;0.57;0.57;;;;;;;10.18;100.00;97259.25;4955334;28;20035;-85
2021/04/29 00:44:31;;;;;;;4.00;1.35;;;;;;;10.16;100.00;97255.84;4936900;29;20031;-85
2021/04/29 00:46:58;;;;;;;1.08;0.77;;;;;;;10.07;100.00;97258.22;4958958;28;20031;-86
2021/04/29 00:49:23;;;;;;;0.85;0.63;;;;;;;10.15;100.00;97272.81;4953079;28;20038;-86
2021/04/29 00:51:49;;;;;;;0.82;0.82;;;;;;;10.01;100.00;97258.59;4950470;29;20090;-86
2021/04/29 00:54:14;;;;;;;1.23;1.05;;;;;;;10.04;100.00;97274.44;4935850;29;20052;-86
2021/04/29 00:56:40;;;;;;;3.92;1.23;;;;;;;10.08;100.00;97268.81;4939778;28;20499;-85
2021/04/29 00:59:06;;;;;;;3.35;1.25;;;;;;;10.17;100.00;97268.25;4955218;28;20047;-86
2021/04/29 01:01:33;;;;;;;0.85;0.82;;;;;;;10.17;100.00;97273.59;4971048;28;20038;-85
2021/04/29 01:04:11;;;;;;;1.65;0.90;;;;;;;10.15;100.00;97275.50;4952561;28;20502;-85
2021/04/29 01:06:45;;;;;;;1.75;0.77;;;;;;;9.91;100.00;97271.69;4943102;29;20122;-85
2021/04/29 01:09:33;;;;;;;0.47;0.47;;;;;;;9.89;100.00;97262.06;4937485;29;20038;-85
2021/04/29 01:12:07;;;;;;;2.30;1.23;;;;;;;9.99;100.00;97266.72;4955346;28;20027;-85
2021/04/29 01:14:34;;;;;;;3.03;2.10;;;;;;;9.99;100.00;97264.06;4946385;28;20557;-82
2021/04/29 01:17:01;;;;;;;0.68;0.63;;;;;;;9.99;100.00;97269.41;4932948;28;20491;-83
2021/04/29 01:19:42;;;;;;;2.22;1.13;;;;;;;10.04;100.00;97272.63;4948845;29;20038;-84
2021/04/29 01:22:09;;;;;;;6.70;0.90;;;;;;;10.00;100.00;97278.25;4929600;29;20030;-83
2021/04/29 01:24:53;;;;;;;2.28;1.30;;;;;;;10.02;100.00;97273.69;4931879;28;20569;-84
2021/04/29 01:27:18;;;;;;;2.50;1.48;;;;;;;9.99;100.00;97265.88;4940638;28;20051;-83
2021/04/29 01:29:45;;;;;;;1.48;1.30;;;;;;;10.01;100.00;97272.81;4940877;28;20542;-83
2021/04/29 01:32:11;;;;;;;1.20;0.88;;;;;;;10.00;100.00;97265.75;4940455;28;20154;-83
2021/04/29 01:34:39;;;;;;;2.15;1.63;;;;;;;9.98;100.00;97262.34;4940505;28;20414;-83
2021/04/29 01:37:06;;;;;;;2.40;1.42;;;;;;;10.08;100.00;97268.81;4941137;28;20053;-83
2021/04/29 01:39:33;;;;;;;2.63;0.68;;;;;;;10.07;100.00;97268.91;4940502;28;20034;-83
2021/04/29 01:41:59;;;;;;;1.35;1.23;;;;;;;10.13;100.00;97266.72;4947491;28;20026;-84
2021/04/29 01:44:25;;;;;;;1.05;0.98;;;;;;;10.16;100.00;97276.34;4953670;29;20486;-83
2021/04/29 01:46:52;;;;;;;0.65;0.65;;;;;;;10.12;100.00;97259.63;4952799;29;20038;-83
2021/04/29 01:49:19;;;;;;;4.57;1.38;;;;;;;10.13;100.00;97266.72;4952994;29;20027;-83
2021/04/29 01:51:45;;;;;;;1.10;0.88;;;;;;;10.18;100.00;97277.97;4939579;28;20066;-83
2021/04/29 01:54:12;;;;;;;0.60;0.60;;;;;;;10.07;100.00;97266.22;4940168;28;20133;-83
2021/04/29 01:56:38;;;;;;;1.75;1.08;;;;;;;10.15;100.00;97280.84;4931889;28;20030;-84
2021/04/29 01:59:08;;;;;;;0.90;0.75;;;;;;;10.13;100.00;97280.09;4940293;28;20034;-83
2021/04/29 02:01:38;;;;;;;2.88;1.27;;;;;;;10.09;100.00;97288.38;4940041;28;20041;-83
2021/04/29 02:04:04;;;;;;;1.42;1.10;;;;;;;10.12;100.00;97281.00;4935336;29;20026;-83
2021/04/29 02:06:30;;;;;;;1.30;1.05;;;;;;;10.08;100.00;97274.16;4924393;29;20041;-84
2021/04/29 02:08:55;;;;;;;1.88;1.15;;;;;;;9.99;100.00;97269.41;4948551;28;20037;-83
2021/04/29 02:11:21;;;;;;;1.73;1.02;;;;;;;10.01;100.00;97278.16;4956067;28;20038;-84
2021/04/29 02:13:49;;;;;;;0.40;0.40;;;;;;;10.06;100.00;97276.03;4955831;28;20030;-83
2021/04/29 02:16:37;;;;;;;0.75;0.75;;;;;;;10.10;100.00;97282.91;4949306;28;20034;-83
2021/04/29 02:19:04;;;;;;;0.60;0.60;;;;;;;10.04;100.00;97269.97;4947952;28;20061;-83
2021/04/29 02:21:30;;;;;;;0.98;0.82;;;;;;;10.02;100.00;97277.22;4939848;28;20031;-83
2021/04/29 02:23:56;;;;;;;1.75;0.98;;;;;;;10.01;100.00;97279.97;4921062;29;20384;-83
2021/04/29 02:26:22;;;;;;;1.65;1.00;;;;;;;10.05;100.00;97277.03;4935845;28;20045;-83
2021/04/29 02:28:48;;;;;;;1.23;1.05;;;;;;;10.03;100.00;97281.59;4939971;28;20045;-83
2021/04/29 02:31:14;;;;;;;1.70;0.85;;;;;;;10.05;100.00;97273.50;4931525;28;20081;-83
2021/04/29 02:33:39;;;;;;;1.13;1.02;;;;;;;10.09;100.00;97281.19;4939372;28;20059;-83
2021/04/29 02:36:07;;;;;;;1.58;1.02;;;;;;;10.07;100.00;97280.44;4939609;28;20042;-83
2021/04/29 02:38:55;;;;;;;2.60;0.80;;;;;;;10.11;100.00;97271.28;4940508;28;20053;-83
2021/04/29 02:41:30;;;;;;;1.30;0.80;;;;;;;10.01;100.00;97263.94;4956720;29;20035;-83
2021/04/29 02:44:12;;;;;;;1.10;0.55;;;;;;;10.15;100.00;97288.84;4900400;29;20179;-82
2021/04/29 02:46:42;;;;;;;1.73;0.88;;;;;;;10.04;100.00;97283.31;4906051;29;20429;-83
2021/04/29 02:52:34;;;;;;;1.77;1.33;;;;;;;9.80;100.00;97250.16;4933132;29;20138;-81
2021/04/29 02:55:09;;;;;;;2.72;1.23;;;;;;;9.87;100.00;97258.66;4893553;29;20068;-83
2021/04/29 02:57:35;;;;;;;2.30;1.38;;;;;;;10.00;100.00;97281.78;4904313;29;20072;-83
2021/04/29 03:00:01;;;;;;;4.40;1.23;;;;;;;10.01;100.00;97279.97;4888975;29;20032;-83
2021/04/29 03:02:31;;;;;;;1.05;0.95;;;;;;;9.89;100.00;97284.28;4896524;29;20103;-83
2021/04/29 03:04:57;;;;;;;0.90;0.90;;;;;;;9.90;100.00;97275.34;4911602;29;20115;-83
2021/04/29 03:07:22;;;;;;;1.95;0.77;;;;;;;9.94;100.00;97281.31;4918824;29;20055;-83
2021/04/29 03:09:48;;;;;;;0.88;0.68;;;;;;;10.03;100.00;97292.28;4910193;29;20032;-83
2021/04/29 03:12:14;;;;;;;3.13;0.75;;;;;;;9.95;100.00;97297.25;4902830;29;20515;-83
2021/04/29 03:14:39;;;;;;;1.30;1.05;;;;;;;9.93;100.00;97295.66;4911636;29;20500;-83
2021/04/29 03:17:05;;;;;;;2.38;2.00;;;;;;;9.95;100.00;97297.25;4915176;29;20040;-83
2021/04/29 03:19:33;;;;;;;2.38;1.45;;;;;;;10.02;100.00;97295.06;4904023;29;20059;-83
2021/04/29 03:21:59;;;;;;;2.97;1.83;;;;;;;10.08;100.00;97294.69;4933618;29;20051;-83
2021/04/29 03:24:24;;;;;;;2.50;1.52;;;;;;;10.07;100.00;97304.50;4923986;29;20027;-83
2021/04/29 03:26:50;;;;;;;1.33;1.17;;;;;;;10.02;100.00;97295.94;4940218;29;20103;-84
2021/04/29 03:29:15;;;;;;;1.50;1.38;;;;;;;10.03;100.00;97302.13;4940056;29;20082;-84
2021/04/29 03:31:41;;;;;;;4.90;0.68;;;;;;;10.12;100.00;97317.59;4924691;29;20066;-84
2021/04/29 03:34:06;;;;;;;0.63;0.63;;;;;;;10.07;100.00;97307.16;4940315;29;20027;-84
2021/04/29 03:36:32;;;;;;;1.25;0.90;;;;;;;10.18;100.00;97311.88;4927999;29;20036;-83
2021/04/29 03:38:58;;;;;;;1.55;0.93;;;;;;;10.16;100.00;97311.09;4905471;29;20114;-84
2021/04/29 03:41:23;;;;;;;1.40;0.90;;;;;;;10.22;100.00;97319.59;4908989;29;20388;-83
2021/04/29 03:43:49;;;;;;;1.65;1.55;;;;;;;10.17;100.00;97311.00;4923553;29;20502;-83
2021/04/29 03:46:15;;;;;;;0.98;0.88;;;;;;;10.26;100.00;97322.91;4939538;29;20035;-83
2021/04/29 03:48:43;;;;;;;1.95;1.33;;;;;;;10.27;100.00;97333.50;4910087;29;20094;-83
2021/04/29 03:51:08;;;;;;;0.73;0.60;;;;;;;10.16;100.00;97319.13;4933063;28;20126;-83
2021/04/29 03:53:34;;;;;;;1.38;0.40;;;;;;;10.15;100.00;97312.91;4942958;28;20046;-83
2021/04/29 03:55:59;;;;;;;0.68;0.55;;;;;;;10.19;100.00;97313.56;4939424;29;20023;-82
2021/04/29 03:58:25;;;;;;;0.55;0.55;;;;;;;10.25;100.00;97319.38;4950323;28;20053;-82
2021/04/29 04:00:51;;;;;;;1.23;1.15;;;;;;;10.20;100.00;97317.97;4942102;28;20226;-81
2021/04/29 04:03:17;;;;;;;2.20;1.30;;;;;;;10.22;100.00;97314.25;4958226;28;20118;-82
2021/04/29 04:05:42;;;;;;;0.73;0.68;;;;;;;10.30;100.00;97321.78;4956813;28;20569;-83
2021/04/29 04:08:08;;;;;;;2.25;1.55;;;;;;;10.31;100.00;97324.34;4948088;28;20058;-83
2021/04/29 04:10:34;;;;;;;1.58;1.30;;;;;;;10.30;100.00;97327.94;4942361;29;20031;-83
2021/04/29 04:12:59;;;;;;;6.45;1.10;;;;;;;10.36;100.00;97331.22;4934896;29;20505;-83
2021/04/29 04:15:25;;;;;;;9.80;1.90;;;;;;;10.34;100.00;97332.16;4941938;28;20181;-83
2021/04/29 04:17:51;;;;;;;3.20;2.10;;;;;;;10.42;100.00;97330.81;4954030;28;20160;-83
2021/04/29 04:20:16;;;;;;;1.25;1.08;;;;;;;10.43;100.00;97332.53;4962403;28;20058;-83
2021/04/29 04:22:45;;;;;;;1.42;0.93;;;;;;;10.45;100.00;97322.59;4942513;28;20062;-82
2021/04/29 04:25:11;;;;;;;0.75;0.75;;;;;;;10.53;100.00;97336.31;4941967;28;20026;-83
2021/04/29 04:27:37;;;;;;;1.42;0.80;;;;;;;10.61;100.00;97334.84;4957630;28;20034;-84
2021/04/29 04:30:04;;;;;;;5.65;1.23;;;;;;;10.68;100.00;97340.66;4940034;28;20031;-82
2021/04/29 04:32:30;;;;;;;2.50;1.10;;;;;;;10.65;100.00;97343.53;4955072;28;20035;-84
2021/04/29 04:34:55;;;;;;;1.48;1.15;;;;;;;10.64;100.00;97344.50;4935101;29;20038;-84
2021/04/29 04:37:21;;;;;;;0.85;0.85;;;;;;;10.68;100.00;97344.19;4937382;28;20066;-85
2021/04/29 04:39:46;;;;;;;0.47;0.47;;;;;;;10.70;100.00;97336.09;4939644;28;20031;-83
2021/04/29 04:42:12;;;;;;;1.95;1.35;;;;;;;10.65;100.00;97333.69;4973621;28;20026;-83
2021/04/29 04:44:37;;;;;;;1.23;1.13;;;;;;;10.76;100.00;97341.03;4941338;28;20027;-81
2021/04/29 04:47:03;;;;;;;7.10;1.80;;;;;;;10.86;100.00;97359.03;4958608;28;20047;-83
2021/04/29 04:49:29;;;;;;;1.88;0.93;;;;;;;10.88;100.00;97358.94;4956975;28;20042;-83
2021/04/29 04:51:54;;;;;;;3.10;1.15;;;;;;;10.92;100.00;97373.81;4934675;29;20580;-82
2021/04/29 04:54:22;;;;;;;2.88;1.80;;;;;;;10.84;100.00;97360.97;4937748;28;20032;-82
2021/04/29 04:56:47;;;;;;;11.27;1.55;;;;;;;10.79;100.00;97356.88;4937582;28;20035;-83
2021/04/29 04:59:13;;;;;;;3.47;2.15;;;;;;;10.82;100.00;97357.53;4940962;28;20033;-82
2021/04/29 05:01:39;;;;;;;5.68;2.17;;;;;;;10.80;100.00;97359.44;4943620;29;20097;-81
2021/04/29 05:04:06;;;;;;;1.67;1.50;;;;;;;10.76;100.00;97363.28;4938432;29;20086;-83
2021/04/29 05:06:35;;;;;;;1.92;1.75;;;;;;;10.94;100.00;97379.94;4935904;28;20062;-83
2021/04/29 05:09:00;;;;;;;1.75;0.93;;;;;;;10.94;100.00;97377.28;4941116;28;20388;-83
2021/04/29 05:11:26;;;;;;;2.88;2.28;;;;;;;10.88;100.00;97369.66;4936389;29;20038;-84
2021/04/29 05:13:51;;;;;;;2.90;1.17;;;;;;;10.96;100.00;97375.34;4937572;28;20092;-83
2021/04/29 05:16:17;;;;;;;2.45;1.92;;;;;;;11.01;100.00;97373.25;4929856;29;20035;-83
2021/04/29 05:18:43;;;;;;;1.65;1.55;;;;;;;10.99;100.00;97369.78;4940691;28;20465;-83
2021/04/29 05:21:08;;;;;;;3.22;1.67;;;;;;;11.06;100.00;97371.09;4940745;28;20039;-83
2021/04/29 05:23:34;;;;;;;4.10;1.95;;;;;;;11.14;100.00;97373.25;4933344;28;20121;-82
2021/04/29 05:25:59;;;;;;;7.22;2.75;;;;;;;11.09;100.00;97365.53;4932717;28;20043;-83
2021/04/29 05:28:25;;;;;;;8.93;2.08;;;;;;;11.16;100.00;97372.22;4940206;28;20128;-83
2021/04/29 05:30:50;;;;;;;2.10;1.88;;;;;;;11.24;100.00;97379.72;4940564;28;20505;-84
2021/04/29 05:33:16;;;;;;;1.08;0.90;;;;;;;11.10;100.00;97364.59;4937067;29;20042;-82
2021/04/29 05:35:41;;;;;;;1.45;0.98;;;;;;;11.08;100.00;97361.13;4947294;28;20061;-83
2021/04/29 05:38:07;;;;;;;2.40;1.42;;;;;;;11.25;100.00;97368.06;4956581;28;20031;-83
2021/04/29 05:40:32;;;;;;;3.30;0.57;;;;;;;11.35;100.00;97380.69;4940326;28;20034;-83
2021/04/29 05:42:58;;;;;;;6.43;1.80;;;;;;;11.42;100.00;97368.63;4947644;28;20121;-83
2021/04/29 05:45:24;;;;;;;5.85;1.58;;;;;;;11.29;100.00;97373.06;4940387;28;20035;-84
2021/04/29 05:47:49;;;;;;;8.27;1.20;;;;;;;11.39;100.00;97376.84;4964510;28;20066;-83
2021/04/29 05:50:15;;;;;;;1.75;1.20;;;;;;;11.45;100.00;97372.91;4971978;28;20030;-83
2021/04/29 05:52:40;;;;;;;1.05;0.98;;;;;;;11.60;100.00;97373.66;4954863;28;20054;-83
2021/04/29 05:55:07;;;;;;;4.80;1.77;;;;;;;11.62;100.00;97374.44;4939921;28;20471;-84
2021/04/29 05:57:33;;;;;;;5.25;1.75;;;;;;;11.68;100.00;97384.72;4943980;29;20039;-82
2021/04/29 05:59:59;;;;;;;2.33;1.23;;;;;;;11.66;100.00;97379.47;4944919;29;20499;-82
2021/04/29 06:02:24;;;;;;;1.00;0.82;;;;;;;11.73;100.00;97382.59;4946774;28;20497;-82
2021/04/29 06:04:50;;;;;;;3.75;0.80;;;;;;;11.89;100.00;97384.13;4950534;28;20026;-84
2021/04/29 06:07:17;;;;;;;2.15;1.95;;;;;;;11.80;100.00;97379.41;4946839;28;20035;-84
2021/04/29 06:09:43;;;;;;;1.50;1.40;;;;;;;11.89;100.00;97384.13;4940964;28;20442;-83
2021/04/29 06:12:08;;;;;;;3.38;1.25;;;;;;;12.01;100.00;97382.41;4930976;28;20092;-83
2021/04/29 06:14:34;;;;;;;2.78;0.77;;;;;;;12.02;100.00;97389.50;4956049;28;20426;-83
2021/04/29 06:17:01;;;;;;;4.10;1.73;;;;;;;12.15;100.00;97390.31;4945087;28;20038;-83
2021/04/29 06:19:26;;;;;;;2.40;0.80;;;;;;;12.06;100.00;97390.13;4962799;28;20041;-82
2021/04/29 06:21:52;;;;;;;1.08;0.85;;;;;;;12.24;100.00;97404.94;4940051;28;20133;-82
2021/04/29 06:24:18;;;;;;;2.30;1.45;;;;;;;12.23;100.00;97396.03;4930382;29;20027;-83
2021/04/29 06:26:43;;;;;;;1.23;1.13;;;;;;;12.27;100.00;97400.22;4944724;28;20039;-83
2021/04/29 06:29:09;;;;;;;0.77;0.77;;;;;;;12.35;100.00;97410.38;4948755;28;20034;-84
2021/04/29 06:31:37;;;;;;;1.00;0.90;;;;;;;12.41;99.55;97405.44;4957231;28;20475;-83
2021/04/29 06:34:06;;;;;;;0.85;0.63;;;;;;;12.52;98.53;97393.91;4964929;28;20039;-83
2021/04/29 06:36:32;;;;;;;0.80;0.65;;;;;;;12.58;98.58;97392.63;4940051;28;20035;-83
2021/04/29 06:38:58;;;;;;;7.05;1.00;;;;;;;12.52;98.21;97408.19;4943640;28;20038;-83
2021/04/29 06:41:24;;;;;;;1.77;0.90;;;;;;;12.61;98.29;97408.50;4955057;28;20035;-83
2021/04/29 06:43:50;;;;;;;1.13;0.65;;;;;;;12.53;98.71;97387.59;4949990;29;20067;-83
2021/04/29 06:46:15;;;;;;;2.45;0.90;;;;;;;12.47;97.61;97405.00;4932825;28;20102;-84
2021/04/29 06:48:41;;;;;;;5.63;1.40;;;;;;;12.61;96.93;97404.00;4931624;28;20465;-83
2021/04/29 06:51:07;;;;;;;2.10;1.35;;;;;;;12.63;98.19;97417.31;4968846;28;20055;-83
2021/04/29 06:53:33;;;;;;;2.63;0.85;;;;;;;12.58;99.15;97406.06;4969594;28;20034;-82
2021/04/29 06:55:58;;;;;;;3.28;2.97;;;;;;;12.51;97.36;97402.94;4954721;28;20401;-82
2021/04/29 06:58:25;;;;;;;2.67;2.03;;;;;;;12.52;98.58;97416.25;4970614;28;20038;-85
2021/04/29 07:00:50;;;;;;;1.92;1.67;;;;;;;12.38;97.88;97408.34;4956500;28;20463;-85
2021/04/29 07:03:16;;;;;;;1.33;1.23;;;;;;;12.42;99.14;97415.22;4951252;28;20084;-85
2021/04/29 07:05:41;;;;;;;2.78;1.25;;;;;;;12.54;100.00;97405.41;4943094;28;20441;-85
2021/04/29 07:08:09;;;;;;;1.42;1.10;;;;;;;12.68;100.00;97412.44;4951395;28;20070;-84
2021/04/29 07:10:35;;;;;;;1.58;1.27;;;;;;;12.77;98.64;97412.63;4958813;28;20118;-84
2021/04/29 07:13:01;;;;;;;8.35;1.88;;;;;;;12.85;97.92;97396.00;4958447;28;20026;-84
2021/04/29 07:15:27;;;;;;;0.93;0.90;;;;;;;12.96;96.03;97409.47;4967362;28;20517;-83
2021/04/29 07:18:04;;;;;;;1.38;0.98;;;;;;;13.12;96.59;97415.47;4957209;28;20045;-84
2021/04/29 07:20:30;;;;;;;9.23;1.02;;;;;;;12.95;94.96;97397.88;4954656;28;20034;-84
2021/04/29 07:22:56;;;;;;;1.25;1.13;;;;;;;12.82;98.14;97401.59;4962718;28;20094;-83
2021/04/29 07:25:24;;;;;;;0.63;0.63;;;;;;;13.06;97.91;97415.88;4952195;28;20397;-84
2021/04/29 07:27:50;;;;;;;1.30;1.20;;;;;;;13.24;95.64;97408.31;4956522;28;20041;-83
2021/04/29 07:30:16;;;;;;;2.53;1.27;;;;;;;13.05;96.79;97420.38;4953940;28;20027;-83
2021/04/29 07:32:42;;;;;;;1.48;0.60;;;;;;;12.82;96.33;97418.56;4954179;28;20034;-82
2021/04/29 07:35:08;;;;;;;2.55;1.92;;;;;;;12.72;97.14;97400.53;4954149;28;20062;-83
2021/04/29 07:37:34;;;;;;;1.75;1.30;;;;;;;12.87;96.94;97420.88;4953855;28;20117;-83
2021/04/29 07:39:59;;;;;;;1.80;1.70;;;;;;;12.99;95.69;97419.97;4955047;28;20114;-83
2021/04/29 07:42:25;;;;;;;1.67;1.02;;;;;;;13.34;93.31;97420.94;4951922;28;20089;-83
2021/04/29 07:44:50;;;;;;;1.30;1.20;;;;;;;13.41;92.76;97415.97;4948821;28;20031;-83
2021/04/29 07:47:16;;;;;;;1.50;1.40;;;;;;;13.31;93.16;97415.81;4951403;28;20022;-83
2021/04/29 07:49:42;;;;;;;2.58;1.50;;;;;;;13.27;93.06;97424.19;4963302;28;20031;-83
2021/04/29 07:52:08;;;;;;;0.85;0.75;;;;;;;13.58;94.78;97419.09;4944063;28;20047;-84
2021/04/29 07:54:35;;;;;;;1.40;0.90;;;;;;;13.91;92.77;97420.16;4958335;28;20035;-82
2021/04/29 07:57:01;;;;;;;1.02;0.80;;;;;;;14.01;92.23;97418.47;4943211;28;20065;-82
2021/04/29 07:59:29;;;;;;;7.43;0.90;;;;;;;14.19;91.11;97417.03;4942779;28;20525;-83
2021/04/29 08:01:55;;;;;;;0.45;0.45;;;;;;;13.97;89.73;97415.16;4942978;28;20030;-82
2021/04/29 08:04:21;;;;;;;3.83;1.13;;;;;;;14.00;89.46;97417.63;4957813;28;20019;-82
2021/04/29 08:06:46;;;;;;;2.05;1.27;;;;;;;14.12;89.48;97418.47;4959257;28;20037;-83
2021/04/29 08:09:12;;;;;;;4.18;1.42;;;;;;;14.30;88.98;97419.75;4943228;28;20077;-82
2021/04/29 08:11:37;;;;;;;5.18;2.55;;;;;;;14.12;88.32;97418.47;4941879;28;20035;-82
2021/04/29 08:14:03;;;;;;;0.60;0.60;;;;;;;14.00;88.50;97424.81;4928139;29;20035;-82
2021/04/29 08:16:29;;;;;;;0.65;0.65;;;;;;;14.09;89.55;97424.09;4932982;28;20034;-82
2021/04/29 08:18:55;;;;;;;1.02;0.88;;;;;;;14.16;88.34;97406.50;4942381;28;20062;-83
2021/04/29 08:21:21;;;;;;;1.30;0.80;;;;;;;13.98;87.46;97416.03;4941900;28;20129;-82
2021/04/29 08:23:46;;;;;;;1.98;1.20;;;;;;;14.24;89.01;97401.41;4942489;28;20063;-83
2021/04/29 08:26:12;;;;;;;2.42;1.33;;;;;;;14.64;86.26;97420.66;4942126;28;20034;-82
2021/04/29 08:28:37;;;;;;;5.10;2.58;;;;;;;14.78;85.93;97422.22;4942129;28;20035;-82
2021/04/29 08:31:03;;;;;;;4.82;1.15;;;;;;;15.16;83.79;97428.06;4942314;28;20398;-82
2021/04/29 08:33:28;;;;;;;1.75;1.20;;;;;;;15.17;83.26;97427.03;4942149;28;20023;-82
2021/04/29 08:35:54;;;;;;;1.20;1.05;;;;;;;15.33;83.58;97430.19;4942925;28;20093;-82
2021/04/29 08:38:20;;;;;;;4.63;0.73;;;;;;;15.44;82.29;97427.44;4942484;28;20503;-83
2021/04/29 08:40:45;;;;;;;0.73;0.68;;;;;;;15.57;80.29;97430.00;4941734;28;20550;-83
2021/04/29 08:43:12;;;;;;;6.43;1.98;;;;;;;15.97;79.71;97441.84;4942010;28;20031;-83
2021/04/29 08:45:38;;;;;;;1.25;0.82;;;;;;;15.99;79.38;97428.22;4957566;28;20369;-83
2021/04/29 08:48:04;;;;;;;3.13;1.95;;;;;;;16.08;78.39;97428.31;4928176;29;20030;-83
2021/04/29 08:50:31;;;;;;;0.93;0.80;;;;;;;15.52;77.46;97426.84;4939184;28;20121;-83
2021/04/29 08:52:57;;;;;;;1.02;0.60;;;;;;;15.19;82.37;97425.09;4942206;28;20026;-82
2021/04/29 08:55:27;;;;;;;2.88;0.75;;;;;;;15.68;81.17;97440.78;4957561;28;20037;-83
2021/04/29 08:57:53;;;;;;;1.73;1.55;;;;;;;15.84;79.63;97437.63;4941813;28;20037;-83
2021/04/29 09:00:20;;;;;;;2.15;1.05;;;;;;;16.12;78.20;97435.13;4957752;28;20042;-83
2021/04/29 09:02:46;;;;;;;2.50;1.35;;;;;;;16.33;78.20;97431.59;4938276;29;20062;-83
2021/04/29 09:05:18;;;;;;;7.15;1.08;;;;;;;16.27;76.94;97443.78;4941605;28;20082;-83
2021/04/29 09:07:58;;;;;;;5.05;2.58;;;;;;;16.28;77.82;97437.38;4941337;28;20137;-83
2021/04/29 09:10:34;;;;;;;1.92;1.55;;;;;;;16.42;78.24;97441.56;4941681;28;20513;-83
2021/04/29 09:13:11;;;;;;;3.55;1.45;;;;;;;16.27;78.54;97432.97;4941358;28;20031;-83
2021/04/29 09:15:39;;;;;;;1.02;0.65;;;;;;;15.81;78.68;97424.41;4959423;28;20494;-83
2021/04/29 09:18:18;;;;;;;2.90;1.20;;;;;;;15.91;79.63;97430.72;4958536;28;20023;-83
2021/04/29 09:20:52;;;;;;;1.00;0.93;;;;;;;15.71;80.37;97417.09;4941095;28;20046;-83
2021/04/29 09:23:25;;;;;;;2.92;0.80;;;;;;;15.92;81.23;97432.44;4957111;28;20454;-83
2021/04/29 09:26:05;;;;;;;0.80;0.80;;;;;;;15.79;79.81;97431.75;4937429;29;20042;-82
2021/04/29 09:28:45;;;;;;;1.38;1.27;;;;;;;15.57;80.47;97422.78;4957233;28;20435;-82
2021/04/29 09:31:17;;;;;;;1.35;0.90;;;;;;;15.62;80.71;97431.38;4940742;28;20022;-82
2021/04/29 09:33:46;;;;;;;;;;;;;;;15.98;80.10;97440.88;4940781;28;20039;-82
2021/04/29 09:36:25;;;;;;;2.30;1.52;;;;;;;16.05;79.44;97438.50;4940470;28;19914;-82
2021/04/29 09:39:05;;;;;;;1.48;0.68;;;;;;;15.75;79.95;97430.31;4932390;28;20027;-82
2021/04/29 09:41:34;;;;;;;6.03;1.30;;;;;;;15.85;80.42;97439.31;4956315;28;20023;-82
2021/04/29 09:44:06;;;;;;;3.15;1.40;;;;;;;15.96;79.64;97440.16;4932689;28;20101;-84
2021/04/29 09:46:44;;;;;;;2.10;1.52;;;;;;;15.74;81.17;97418.69;4960139;28;20494;-84
2021/04/29 09:49:31;;;;;;;2.67;0.85;;;;;;;15.70;81.09;97428.88;4958183;28;20031;-84
2021/04/29 09:51:59;;;;;;;1.20;0.85;;;;;;;15.59;81.82;97420.84;4929449;29;20491;-84
2021/04/29 09:54:34;;;;;;;0.93;0.90;;;;;;;15.80;81.26;97433.47;4921825;29;20078;-84
2021/04/29 09:57:08;;;;;;;2.28;0.93;;;;;;;15.93;81.07;97434.16;4917723;29;20032;-85
2021/04/29 09:59:59;;;;;;;1.73;1.08;;;;;;;15.64;81.60;97410.50;4918388;29;20024;-83
2021/04/29 10:02:30;;;;;;;0.95;0.80;;;;;;;15.68;82.22;97409.28;4903855;29;20035;-85
2021/04/29 10:05:25;;;;;;;3.15;1.98;;;;;;;15.53;81.98;97397.09;4918472;29;20030;-85
2021/04/29 10:07:57;;;;;;;1.75;0.73;;;;;;;15.88;81.80;97423.75;4901149;29;20138;-85
2021/04/29 10:10:22;;;;;;;11.82;1.90;;;;;;;15.89;81.46;97419.22;4930979;29;20089;-84
2021/04/29 10:12:49;;;;;;;3.80;1.58;;;;;;;16.04;80.98;97431.38;4902695;29;20122;-84
2021/04/29 10:15:14;;;;;;;2.20;1.70;;;;;;;16.09;81.14;97407.53;4918459;29;20034;-85
2021/04/29 10:17:40;;;;;;;1.00;0.80;;;;;;;16.32;80.52;97419.06;4902382;29;20495;-85
2021/04/29 10:20:06;;;;;;;0.75;0.75;;;;;;;16.22;78.71;97425.25;4902650;29;20032;-84
2021/04/29 10:22:32;;;;;;;0.57;0.57;;;;;;;16.25;78.73;97413.34;4902940;29;20031;-83
2021/04/29 10:24:57;;;;;;;2.88;1.67;;;;;;;16.23;79.12;97426.13;4902740;29;20098;-85
2021/04/29 10:27:27;;;;;;;2.05;1.42;;;;;;;16.25;80.22;97429.53;4916147;29;20487;-83
2021/04/29 10:30:02;;;;;;;2.42;1.10;;;;;;;16.54;79.11;97433.28;4921209;29;20098;-85
2021/04/29 10:32:31;;;;;;;1.40;0.98;;;;;;;16.38;78.62;97432.88;4937334;29;20027;-84
2021/04/29 10:34:57;;;;;;;1.13;0.60;;;;;;;15.95;81.50;97432.19;4921061;29;20110;-83
2021/04/29 10:37:24;;;;;;;1.25;1.02;;;;;;;15.79;82.71;97426.34;4921475;29;20030;-83
2021/04/29 10:39:56;;;;;;;0.95;0.95;;;;;;;16.18;79.80;97428.38;4921009;29;20031;-84
2021/04/29 10:42:24;;;;;;;2.70;1.60;;;;;;;16.57;78.60;97418.66;4921086;29;20035;-84
2021/04/29 10:44:58;;;;;;;2.53;1.13;;;;;;;16.85;76.38;97404.44;4920733;29;20027;-85
2021/04/29 10:47:25;;;;;;;3.40;1.75;;;;;;;17.12;76.87;97422.69;4921230;29;20067;-85
2021/04/29 10:49:53;;;;;;;0.90;0.85;;;;;;;17.31;75.66;97418.19;4937667;29;20384;-85
2021/04/29 10:52:19;;;;;;;1.45;1.00;;;;;;;17.51;74.33;97421.75;4939908;29;20055;-85
2021/04/29 10:54:51;;;;;;;4.20;1.08;;;;;;;17.46;75.53;97429.47;4938897;29;20034;-86
2021/04/29 10:57:20;;;;;;;9.25;1.85;;;;;;;17.19;75.99;97438.25;4918786;29;20116;-85
2021/04/29 10:59:56;;;;;;;1.42;1.15;;;;;;;17.19;76.47;97421.16;4919850;29;20122;-85
2021/04/29 11:02:35;;;;;;;1.55;0.65;;;;;;;17.15;77.28;97435.94;4904026;29;20039;-84
2021/04/29 11:05:03;;;;;;;1.48;1.13;;;;;;;16.96;75.93;97422.34;4929710;29;20099;-85
2021/04/29 11:07:30;;;;;;;1.00;0.90;;;;;;;16.90;76.47;97431.00;4915782;29;20031;-84
2021/04/29 11:10:04;;;;;;;4.57;1.48;;;;;;;16.53;78.36;97428.84;4920701;29;20042;-85
2021/04/29 11:13:01;;;;;;;0.80;0.68;;;;;;;16.91;78.17;97432.72;4937191;29;20129;-85
2021/04/29 11:15:26;;;;;;;2.65;1.10;;;;;;;16.94;77.00;97432.47;4900580;29;20031;-85
2021/04/29 11:18:05;;;;;;;6.95;1.52;;;;;;;17.19;76.61;97418.47;4934594;29;20042;-85
2021/04/29 11:20:51;;;;;;;1.30;0.85;;;;;;;17.20;74.80;97436.38;4930601;29;20035;-84
2021/04/29 11:23:39;;;;;;;0.50;0.50;;;;;;;16.95;75.66;97431.47;4918714;29;20067;-86
2021/04/29 11:26:05;;;;;;;1.95;1.33;;;;;;;17.10;76.05;97425.53;4911067;29;20114;-85
2021/04/29 11:28:31;;;;;;;27.80;2.00;;;;;;;17.12;76.01;97417.28;4920554;29;20046;-86
2021/04/29 11:30:57;;;;;;;1.80;1.40;;;;;;;17.22;75.52;97424.44;4902797;29;20032;-86
2021/04/29 11:33:31;;;;;;;3.63;0.90;;;;;;;17.38;74.60;97409.53;4903416;29;20070;-87
2021/04/29 11:35:56;;;;;;;1.92;1.83;;;;;;;16.67;76.59;97404.19;4934965;29;20122;-85
2021/04/29 11:38:22;;;;;;;0.90;0.90;;;;;;;16.74;78.14;97391.84;4921807;28;20153;-86